createdAt,value
2024-02-29T00:00:10.736Z,6.37
2024-02-29T00:02:38.070Z,6.57
2024-02-29T00:05:06.457Z,5.57
2024-02-29T00:07:35.144Z,6.17
2024-02-29T00:10:02.546Z,6.13
2024-02-29T00:12:29.952Z,6.10
2024-02-29T00:14:57.247Z,5.47
2024-02-29T00:17:24.581Z,5.40
2024-02-29T00:19:51.914Z,5.57
2024-02-29T00:22:19.279Z,5.90
2024-02-29T00:24:47.987Z,5.67
2024-02-29T00:27:15.345Z,5.53
2024-02-29T00:29:43.706Z,5.60
2024-02-29T00:32:11.021Z,5.30
2024-02-29T00:34:38.317Z,5.27
2024-02-29T00:37:05.936Z,5.13
2024-02-29T00:39:33.282Z,5.50
2024-02-29T00:42:01.987Z,5.17
2024-02-29T00:44:29.310Z,5.40
2024-02-29T00:46:56.636Z,5.03
2024-02-29T00:49:24.020Z,5.27
2024-02-29T00:51:51.380Z,5.43
2024-02-29T00:54:18.746Z,5.90
2024-02-29T00:56:46.059Z,5.67
2024-02-29T00:59:14.762Z,6.77
2024-02-29T01:01:42.245Z,6.30
2024-02-29T01:04:09.684Z,7.00
2024-02-29T01:06:37.066Z,7.10
2024-02-29T01:09:04.390Z,6.30
2024-02-29T01:11:32.676Z,6.67
2024-02-29T01:14:00.097Z,6.27
2024-02-29T01:16:28.780Z,6.47
2024-02-29T01:18:56.186Z,6.70
2024-02-29T01:21:23.554Z,5.90
2024-02-29T01:23:50.887Z,6.07
2024-02-29T01:26:18.216Z,5.50
2024-02-29T01:28:45.589Z,5.77
2024-02-29T01:31:13.069Z,6.17
2024-02-29T01:33:41.899Z,5.83
2024-02-29T01:36:09.290Z,6.00
2024-02-29T01:38:36.644Z,5.50
2024-02-29T01:41:04.262Z,4.80
2024-02-29T01:43:31.559Z,5.47
2024-02-29T01:46:12.001Z,4.93
2024-02-29T01:48:41.197Z,4.93
2024-02-29T01:51:09.531Z,5.47
2024-02-29T01:53:36.887Z,5.37
2024-02-29T01:56:04.824Z,4.70
2024-02-29T01:58:33.431Z,4.73
2024-02-29T02:01:01.032Z,5.20
2024-02-29T02:03:28.715Z,4.90
2024-02-29T02:05:57.407Z,4.70
2024-02-29T02:08:25.280Z,4.90
2024-02-29T02:10:52.662Z,4.80
2024-02-29T02:13:20.027Z,4.70
2024-02-29T02:15:47.538Z,4.20
2024-02-29T02:18:14.885Z,4.57
2024-02-29T02:20:43.608Z,4.13
2024-02-29T02:23:10.960Z,4.43
2024-02-29T02:25:38.277Z,4.13
2024-02-29T02:28:06.041Z,4.27
2024-02-29T02:30:33.430Z,4.10
2024-02-29T02:33:02.097Z,3.90
2024-02-29T02:35:29.439Z,3.73
2024-02-29T02:37:58.122Z,3.63
2024-02-29T02:40:25.594Z,3.70
2024-02-29T02:42:52.911Z,4.00
2024-02-29T02:45:20.332Z,3.73
2024-02-29T02:47:47.692Z,3.50
2024-02-29T02:50:15.180Z,3.80
2024-02-29T02:52:42.534Z,3.70
2024-02-29T02:55:11.315Z,3.10
2024-02-29T02:57:38.801Z,3.50
2024-02-29T03:00:07.945Z,3.67
2024-02-29T03:02:35.297Z,3.43
2024-02-29T03:05:02.621Z,3.70
2024-02-29T03:07:29.904Z,3.60
2024-02-29T03:09:57.387Z,4.00
2024-02-29T03:12:26.095Z,4.07
2024-02-29T03:14:53.446Z,4.20
2024-02-29T03:17:20.786Z,4.40
2024-02-29T03:19:48.097Z,4.13
2024-02-29T03:22:15.475Z,3.97
2024-02-29T03:24:42.804Z,4.00
2024-02-29T03:27:10.441Z,3.87
2024-02-29T03:29:39.278Z,3.57
2024-02-29T03:32:06.773Z,3.87
2024-02-29T03:34:34.136Z,4.03
2024-02-29T03:37:01.455Z,4.03
2024-02-29T03:39:28.756Z,3.87
2024-02-29T03:41:56.059Z,3.40
2024-02-29T03:44:23.389Z,3.40
2024-02-29T03:46:52.430Z,3.47
2024-02-29T03:49:19.771Z,3.47
2024-02-29T03:51:47.201Z,3.23
2024-02-29T03:54:14.584Z,3.10
2024-02-29T03:56:41.891Z,3.00
2024-02-29T03:59:09.212Z,2.90
2024-02-29T04:01:36.656Z,3.03
2024-02-29T04:04:05.560Z,2.97
2024-02-29T04:06:32.937Z,3.33
2024-02-29T04:09:00.274Z,3.27
2024-02-29T04:11:27.663Z,3.30
2024-02-29T04:13:54.990Z,3.50
2024-02-29T04:16:22.387Z,3.57
2024-02-29T04:18:49.758Z,3.70
2024-02-29T04:21:18.626Z,3.47
2024-02-29T04:23:45.961Z,3.50
2024-02-29T04:26:13.301Z,3.13
2024-02-29T04:28:40.619Z,2.97
2024-02-29T04:31:07.935Z,3.13
2024-02-29T04:33:35.442Z,3.27
2024-02-29T04:36:02.885Z,3.13
2024-02-29T04:38:31.582Z,3.13
2024-02-29T04:40:58.918Z,3.13
2024-02-29T04:43:26.252Z,3.10
2024-02-29T04:45:53.564Z,3.33
2024-02-29T04:48:20.900Z,3.10
2024-02-29T04:50:48.276Z,3.20
2024-02-29T04:53:15.595Z,2.90
2024-02-29T04:55:44.286Z,2.97
2024-02-29T04:58:11.733Z,2.73
2024-02-29T05:00:39.170Z,2.57
2024-02-29T05:03:06.605Z,2.90
2024-02-29T05:05:33.972Z,2.70
2024-02-29T05:08:01.298Z,2.70
2024-02-29T05:10:28.624Z,2.53
2024-02-29T05:12:57.332Z,2.90
2024-02-29T05:15:24.703Z,3.20
2024-02-29T05:17:53.126Z,3.10
2024-02-29T05:20:20.460Z,3.03
2024-02-29T05:22:47.766Z,3.03
2024-02-29T05:25:15.197Z,2.70
2024-02-29T05:27:42.568Z,3.00
2024-02-29T05:30:12.521Z,2.70
2024-02-29T05:32:39.854Z,2.90
2024-02-29T05:35:08.238Z,3.40
2024-02-29T05:37:35.586Z,3.23
2024-02-29T05:40:03.292Z,2.73
2024-02-29T05:42:30.699Z,3.80
2024-02-29T05:44:58.009Z,3.27
2024-02-29T05:47:26.752Z,3.33
2024-02-29T05:49:54.101Z,3.63
2024-02-29T05:52:21.619Z,3.53
2024-02-29T05:54:49.000Z,3.00
2024-02-29T05:57:16.366Z,2.70
2024-02-29T05:59:43.705Z,2.50
2024-02-29T06:02:11.089Z,2.83
2024-02-29T06:04:39.834Z,3.10
2024-02-29T06:07:07.169Z,3.10
2024-02-29T06:09:34.762Z,2.70
2024-02-29T06:12:02.265Z,3.00
2024-02-29T06:14:29.585Z,3.03
2024-02-29T06:16:56.881Z,2.80
2024-02-29T06:19:24.208Z,2.30
2024-02-29T06:21:52.921Z,2.53
2024-02-29T06:24:20.361Z,2.50
2024-02-29T06:26:47.869Z,2.30
2024-02-29T06:29:15.238Z,2.67
2024-02-29T06:31:42.598Z,2.50
2024-02-29T06:34:10.010Z,2.43
2024-02-29T06:36:37.440Z,2.53
2024-02-29T06:39:06.154Z,2.23
2024-02-29T06:41:33.495Z,2.33
2024-02-29T06:44:00.828Z,2.60
2024-02-29T06:46:28.124Z,2.03
2024-02-29T06:48:55.677Z,2.30
2024-02-29T06:51:23.046Z,2.50
2024-02-29T06:53:50.592Z,2.33
2024-02-29T06:56:19.280Z,3.03
2024-02-29T06:58:46.589Z,2.73
2024-02-29T07:01:14.353Z,2.80
2024-02-29T07:03:41.807Z,2.63
2024-02-29T07:06:09.134Z,2.60
2024-02-29T07:08:36.577Z,2.60
2024-02-29T07:11:04.098Z,2.73
2024-02-29T07:13:32.850Z,3.10
2024-02-29T07:16:00.270Z,3.20
2024-02-29T07:18:27.625Z,3.60
2024-02-29T07:20:54.927Z,3.83
2024-02-29T07:23:22.289Z,3.97
2024-02-29T07:25:49.639Z,4.80
2024-02-29T07:28:17.085Z,4.30
2024-02-29T07:30:45.811Z,4.53
2024-02-29T07:33:13.265Z,4.57
2024-02-29T07:35:40.700Z,3.90
2024-02-29T07:38:08.003Z,3.60
2024-02-29T07:40:35.347Z,3.30
2024-02-29T07:43:02.769Z,3.87
2024-02-29T07:45:30.170Z,3.10
2024-02-29T07:47:59.252Z,3.37
2024-02-29T07:50:26.595Z,3.70
2024-02-29T07:52:54.153Z,3.67
2024-02-29T07:55:21.681Z,3.60
2024-02-29T07:57:49.176Z,3.37
2024-02-29T08:00:17.037Z,3.03
2024-02-29T08:02:44.841Z,3.30
2024-02-29T08:05:13.794Z,3.23
2024-02-29T08:07:41.170Z,2.90
2024-02-29T08:10:09.381Z,2.80
2024-02-29T08:12:36.749Z,3.30
2024-02-29T08:15:04.583Z,2.97
2024-02-29T08:17:31.934Z,2.90
2024-02-29T08:20:00.389Z,3.17
2024-02-29T08:22:29.293Z,3.23
2024-02-29T08:24:56.661Z,3.10
2024-02-29T08:27:24.685Z,3.23
2024-02-29T08:29:51.989Z,3.30
2024-02-29T08:32:19.390Z,5.33
2024-02-29T08:34:46.797Z,3.20
2024-02-29T08:37:14.226Z,3.13
2024-02-29T08:39:43.050Z,3.17
2024-02-29T08:42:10.401Z,3.00
2024-02-29T08:44:37.729Z,2.67
2024-02-29T08:47:05.403Z,2.90
2024-02-29T08:49:32.832Z,2.40
2024-02-29T08:52:00.210Z,2.83
2024-02-29T08:54:27.581Z,2.30
2024-02-29T08:56:56.294Z,2.37
2024-02-29T08:59:23.655Z,2.03
2024-02-29T09:01:51.181Z,2.13
2024-02-29T09:04:18.679Z,2.60
2024-02-29T09:06:46.103Z,2.30
2024-02-29T09:09:13.464Z,1.90
2024-02-29T09:11:40.804Z,2.63
2024-02-29T09:14:09.649Z,2.20
2024-02-29T09:16:37.033Z,2.00
2024-02-29T09:19:04.747Z,2.23
2024-02-29T09:21:32.146Z,2.57
2024-02-29T09:23:59.474Z,2.40
2024-02-29T09:26:26.797Z,2.50
2024-02-29T09:28:54.223Z,2.37
2024-02-29T09:31:23.083Z,2.20
2024-02-29T09:33:50.480Z,2.17
2024-02-29T09:36:18.003Z,2.47
2024-02-29T09:38:45.368Z,2.10
2024-02-29T09:41:31.935Z,1.60
2024-02-29T09:44:03.938Z,1.80
2024-02-29T09:46:32.673Z,1.97
2024-02-29T09:49:00.252Z,2.13
2024-02-29T09:51:29.742Z,1.70
2024-02-29T09:53:57.589Z,1.30
2024-02-29T09:56:27.382Z,1.40
2024-02-29T09:58:55.521Z,1.33
2024-02-29T10:01:23.437Z,1.50
2024-02-29T10:03:53.285Z,1.53
2024-02-29T10:06:20.637Z,1.40
2024-02-29T10:08:48.034Z,1.57
2024-02-29T10:11:15.594Z,1.40
2024-02-29T10:13:43.168Z,1.37
2024-02-29T10:16:11.392Z,1.33
2024-02-29T10:18:38.858Z,1.40
2024-02-29T10:21:10.641Z,1.40
2024-02-29T10:23:38.094Z,1.63
2024-02-29T10:26:06.336Z,1.27
2024-02-29T10:28:33.948Z,1.33
2024-02-29T10:31:01.634Z,1.43
2024-02-29T10:33:29.499Z,1.40
2024-02-29T10:35:57.268Z,1.20
2024-02-29T10:38:26.043Z,1.20
2024-02-29T10:40:58.939Z,1.10
2024-02-29T10:43:27.425Z,1.27
2024-02-29T10:45:55.000Z,1.40
2024-02-29T10:48:30.721Z,1.47
2024-02-29T10:51:03.909Z,1.40
2024-02-29T10:53:43.697Z,1.50
2024-02-29T10:56:20.480Z,1.60
2024-02-29T10:58:54.457Z,2.10
2024-02-29T11:01:22.449Z,1.80
2024-02-29T11:03:49.824Z,1.90
2024-02-29T11:06:18.594Z,1.57
2024-02-29T11:08:47.989Z,1.40
2024-02-29T11:11:15.415Z,1.20
2024-02-29T11:13:42.904Z,1.30
2024-02-29T11:16:10.985Z,1.30
2024-02-29T11:18:38.369Z,1.40
2024-02-29T11:21:06.806Z,1.20
2024-02-29T11:23:34.938Z,1.30
2024-02-29T11:26:06.919Z,1.60
2024-02-29T11:28:38.020Z,1.20
2024-02-29T11:31:17.192Z,1.60
2024-02-29T11:33:45.438Z,1.20
2024-02-29T11:36:13.488Z,1.37
2024-02-29T11:38:41.338Z,1.30
2024-02-29T11:41:19.386Z,1.33
2024-02-29T11:43:47.715Z,1.30
2024-02-29T11:46:15.289Z,1.20
2024-02-29T11:48:43.032Z,1.57
2024-02-29T11:51:10.516Z,1.60
2024-02-29T11:53:39.439Z,1.30
2024-02-29T11:56:15.163Z,1.40
2024-02-29T11:58:45.729Z,1.53
2024-02-29T12:01:14.228Z,1.30
2024-02-29T12:03:41.809Z,1.10
2024-02-29T12:06:09.379Z,1.57
2024-02-29T12:08:39.462Z,1.20
2024-02-29T12:11:07.606Z,1.47
2024-02-29T12:13:35.114Z,1.30
2024-02-29T12:16:04.861Z,1.00
2024-02-29T12:18:34.682Z,0.80
2024-02-29T12:21:02.079Z,0.83
2024-02-29T12:23:31.295Z,0.80
2024-02-29T12:26:07.770Z,0.90
2024-02-29T12:28:36.007Z,0.80
2024-02-29T12:31:05.778Z,0.80
2024-02-29T12:33:33.434Z,0.63
2024-02-29T12:36:01.267Z,0.70
2024-02-29T12:38:28.611Z,0.80
2024-02-29T12:43:46.862Z,0.70
2024-02-29T12:46:16.736Z,0.70
2024-02-29T12:48:44.718Z,0.60
2024-02-29T12:51:12.082Z,0.80
2024-02-29T12:53:39.395Z,0.60
2024-02-29T12:56:06.829Z,0.70
2024-02-29T12:58:34.304Z,1.17
2024-02-29T13:01:01.839Z,0.90
2024-02-29T13:03:30.759Z,0.70
2024-02-29T13:05:58.078Z,0.80
2024-02-29T13:08:25.404Z,0.70
2024-02-29T13:10:52.807Z,0.70
2024-02-29T13:13:20.164Z,0.80
2024-02-29T13:15:47.553Z,0.60
2024-02-29T13:18:15.003Z,0.80
2024-02-29T13:20:43.716Z,0.70
2024-02-29T13:23:11.069Z,0.90
2024-02-29T13:25:38.560Z,0.73
2024-02-29T13:28:06.173Z,1.20
2024-02-29T13:30:48.822Z,0.80
2024-02-29T13:33:16.266Z,0.80
2024-02-29T13:35:45.031Z,0.77
2024-02-29T13:38:12.417Z,0.90
2024-02-29T13:40:39.741Z,0.80
2024-02-29T13:43:08.048Z,0.70
2024-02-29T13:45:37.712Z,0.70
2024-02-29T13:48:05.773Z,0.60
2024-02-29T13:50:33.196Z,1.00
2024-02-29T13:53:01.887Z,0.70
2024-02-29T13:55:29.268Z,0.70
2024-02-29T13:57:56.810Z,0.63
2024-02-29T14:00:24.214Z,0.70
2024-02-29T14:02:51.549Z,0.70
2024-02-29T14:05:18.877Z,1.10
2024-02-29T14:07:48.755Z,1.30
2024-02-29T14:10:18.283Z,0.90
2024-02-29T14:12:45.619Z,0.80
2024-02-29T14:15:12.956Z,0.87
2024-02-29T14:17:40.389Z,1.10
2024-02-29T14:20:08.363Z,0.93
2024-02-29T14:22:35.733Z,0.70
2024-02-29T14:25:03.417Z,1.00
2024-02-29T14:27:32.320Z,0.80
2024-02-29T14:29:59.681Z,0.80
2024-02-29T14:32:27.081Z,1.10
2024-02-29T14:34:54.388Z,0.80
2024-02-29T14:37:21.842Z,1.00
2024-02-29T14:39:49.394Z,0.90
2024-02-29T14:42:16.724Z,0.70
2024-02-29T14:44:45.418Z,0.87
2024-02-29T14:47:12.796Z,0.73
2024-02-29T14:49:40.143Z,1.20
2024-02-29T14:52:07.824Z,0.80
2024-02-29T14:54:35.340Z,1.40
2024-02-29T14:57:02.939Z,0.80
2024-02-29T14:59:30.280Z,0.93
2024-02-29T15:01:59.105Z,0.93
2024-02-29T15:04:26.604Z,1.00
2024-02-29T15:06:54.101Z,1.03
2024-02-29T15:09:21.566Z,1.03
2024-02-29T15:11:48.999Z,1.23
2024-02-29T15:14:16.879Z,1.00
2024-02-29T15:16:44.856Z,1.00
2024-02-29T15:19:13.675Z,0.80
2024-02-29T15:21:41.103Z,1.07
2024-02-29T15:24:08.447Z,1.20
2024-02-29T15:26:35.793Z,1.20
2024-02-29T15:29:03.145Z,0.90
2024-02-29T15:31:30.561Z,0.90
2024-02-29T15:33:58.583Z,1.00
2024-02-29T15:36:27.345Z,1.50
2024-02-29T15:38:54.763Z,1.47
2024-02-29T15:41:22.085Z,1.30
2024-02-29T15:43:49.509Z,1.20
2024-02-29T15:46:17.211Z,1.47
2024-02-29T15:48:45.172Z,1.47
2024-02-29T15:51:12.540Z,1.50
2024-02-29T15:53:41.576Z,1.50
2024-02-29T15:56:08.976Z,1.83
2024-02-29T15:58:36.693Z,1.90
2024-02-29T16:01:04.320Z,1.60
2024-02-29T16:03:31.945Z,1.77
2024-02-29T16:05:59.253Z,2.20
2024-02-29T16:08:26.580Z,1.83
2024-02-29T16:10:55.357Z,1.90
2024-02-29T16:13:22.860Z,2.13
2024-02-29T16:15:50.325Z,1.90
2024-02-29T16:18:17.740Z,1.70
2024-02-29T16:20:45.124Z,1.97
2024-02-29T16:23:12.465Z,2.07
2024-02-29T16:25:39.893Z,1.90
2024-02-29T16:28:08.715Z,2.20
2024-02-29T16:30:36.043Z,8.13
2024-02-29T16:33:03.740Z,2.37
2024-02-29T16:35:31.203Z,2.10
2024-02-29T16:37:59.780Z,2.37
2024-02-29T16:40:27.274Z,2.40
2024-02-29T16:42:54.785Z,1.83
2024-02-29T16:45:23.546Z,2.10
2024-02-29T16:47:50.980Z,2.03
2024-02-29T16:50:18.516Z,2.43
2024-02-29T16:52:45.856Z,1.40
2024-02-29T16:55:13.730Z,1.00
2024-02-29T16:57:41.480Z,0.80
2024-02-29T17:00:10.157Z,1.20
2024-02-29T17:02:38.940Z,1.10
2024-02-29T17:05:06.445Z,1.00
2024-02-29T17:07:33.808Z,1.60
2024-02-29T17:10:01.240Z,1.80
2024-02-29T17:12:28.670Z,1.60
2024-02-29T17:14:56.018Z,1.53
2024-02-29T17:17:23.450Z,1.17
2024-02-29T17:19:52.201Z,1.20
2024-02-29T17:22:19.544Z,1.30
2024-02-29T17:24:46.944Z,1.13
2024-02-29T17:27:14.528Z,1.80
2024-02-29T17:29:42.015Z,1.67
2024-02-29T17:32:09.439Z,2.30
2024-02-29T17:34:36.758Z,2.33
2024-02-29T17:37:05.674Z,2.53
2024-02-29T17:39:33.014Z,6.47
2024-02-29T17:42:00.359Z,4.03
2024-02-29T17:44:28.034Z,3.67
2024-02-29T17:46:55.353Z,1.97
2024-02-29T17:49:22.813Z,2.00
2024-02-29T17:51:50.229Z,1.77
2024-02-29T17:54:18.993Z,2.30
2024-02-29T17:56:51.791Z,2.00
2024-02-29T17:59:20.099Z,1.70
2024-02-29T18:01:47.539Z,1.80
2024-02-29T18:04:14.950Z,10.43
2024-02-29T18:06:42.469Z,2.20
2024-02-29T18:09:09.813Z,2.00
2024-02-29T18:11:39.042Z,1.53
2024-02-29T18:14:06.456Z,2.30
2024-02-29T18:16:34.442Z,1.87
2024-02-29T18:19:02.078Z,1.87
2024-02-29T18:21:29.557Z,1.80
2024-02-29T18:23:56.881Z,1.93
2024-02-29T18:26:24.310Z,1.60
2024-02-29T18:28:53.005Z,1.50
2024-02-29T18:31:20.351Z,1.80
2024-02-29T18:33:47.776Z,1.37
2024-02-29T18:36:15.105Z,1.40
2024-02-29T18:38:42.436Z,1.40
2024-02-29T18:41:09.799Z,1.40
2024-02-29T18:43:37.111Z,1.77
2024-02-29T18:46:06.874Z,1.70
2024-02-29T18:48:34.775Z,1.43
2024-02-29T18:51:02.151Z,1.60
2024-02-29T18:53:29.516Z,1.60
2024-02-29T18:55:56.862Z,1.23
2024-02-29T18:58:24.316Z,1.27
2024-02-29T19:00:51.843Z,1.50
2024-02-29T19:03:20.587Z,1.80
2024-02-29T19:05:47.929Z,1.50
2024-02-29T19:08:15.297Z,1.60
2024-02-29T19:10:42.865Z,1.80
2024-02-29T19:13:10.327Z,1.80
2024-02-29T19:15:37.697Z,1.70
2024-02-29T19:18:05.500Z,1.70
2024-02-29T19:20:34.277Z,1.57
2024-02-29T19:23:01.715Z,1.47
2024-02-29T19:25:29.113Z,1.70
2024-02-29T19:27:56.537Z,1.43
2024-02-29T19:30:23.928Z,1.47
2024-02-29T19:32:51.288Z,1.60
2024-02-29T19:35:18.712Z,1.50
2024-02-29T19:37:48.167Z,1.80
2024-02-29T19:40:15.719Z,1.67
2024-02-29T19:42:43.225Z,1.83
2024-02-29T19:45:11.470Z,1.50
2024-02-29T19:47:39.283Z,1.80
2024-02-29T19:50:07.835Z,1.50
2024-02-29T19:52:36.460Z,1.40
2024-02-29T19:55:06.733Z,1.63
2024-02-29T19:57:34.318Z,1.50
2024-02-29T20:00:01.658Z,1.43
2024-02-29T20:02:29.269Z,1.57
2024-02-29T20:04:56.589Z,1.37
2024-02-29T20:07:24.023Z,1.83
2024-02-29T20:09:51.402Z,1.63
2024-02-29T20:12:20.208Z,1.63
2024-02-29T20:14:47.735Z,1.30
2024-02-29T20:17:15.152Z,1.50
2024-02-29T20:19:42.700Z,1.40
2024-02-29T20:22:10.386Z,1.50
2024-02-29T20:24:37.752Z,1.57
2024-02-29T20:27:05.185Z,1.70
2024-02-29T20:29:33.881Z,1.50
2024-02-29T20:32:01.229Z,1.57
2024-02-29T20:34:28.671Z,1.23
2024-02-29T20:36:56.147Z,1.50
2024-02-29T20:39:23.520Z,1.30
2024-02-29T20:41:50.844Z,1.50
2024-02-29T20:44:18.244Z,1.83
2024-02-29T20:46:46.996Z,2.00
2024-02-29T20:49:14.486Z,1.53
2024-02-29T20:51:41.891Z,1.53
2024-02-29T20:54:09.313Z,1.73
2024-02-29T20:56:36.780Z,1.40
2024-02-29T20:59:04.130Z,1.23
2024-02-29T21:01:31.524Z,1.07
2024-02-29T21:04:00.364Z,1.40
2024-02-29T21:06:27.965Z,1.23
2024-02-29T21:08:55.295Z,1.27
2024-02-29T21:11:22.676Z,1.40
2024-02-29T21:13:50.070Z,1.30
2024-02-29T21:16:17.443Z,1.40
2024-02-29T21:18:44.812Z,1.40
2024-02-29T21:21:15.137Z,1.50
2024-02-29T21:23:43.575Z,1.60
2024-02-29T21:26:10.869Z,1.10
2024-02-29T21:28:38.272Z,1.20
2024-02-29T21:31:05.672Z,1.17
2024-02-29T21:33:33.006Z,1.20
2024-02-29T21:36:00.330Z,1.27
2024-02-29T21:38:29.121Z,1.20
2024-02-29T21:40:56.654Z,1.60
2024-02-29T21:43:24.258Z,1.60
2024-02-29T21:45:51.846Z,1.10
2024-02-29T21:48:19.169Z,1.00
2024-02-29T21:50:46.495Z,1.10
2024-02-29T21:53:13.858Z,0.70
2024-02-29T21:55:42.546Z,0.97
2024-02-29T21:58:09.933Z,1.13
2024-02-29T22:00:37.373Z,1.43
2024-02-29T22:03:05.235Z,1.00
2024-02-29T22:05:32.584Z,0.97
2024-02-29T22:07:59.912Z,1.00
2024-02-29T22:10:27.774Z,1.10
2024-02-29T22:12:56.661Z,0.90
2024-02-29T22:15:23.995Z,1.10
2024-02-29T22:17:51.366Z,0.80
2024-02-29T22:20:18.764Z,1.00
2024-02-29T22:22:46.088Z,1.00
2024-02-29T22:25:17.137Z,0.97
2024-02-29T22:27:44.577Z,1.07
2024-02-29T22:30:14.392Z,1.00
2024-02-29T22:32:41.754Z,1.10
2024-02-29T22:35:09.389Z,1.10
2024-02-29T22:37:36.837Z,1.20
2024-02-29T22:40:05.661Z,1.20
2024-02-29T22:42:33.028Z,1.00
2024-02-29T22:45:00.331Z,0.80
2024-02-29T22:47:29.073Z,0.90
2024-02-29T22:49:56.425Z,1.20
2024-02-29T22:52:23.897Z,1.00
2024-02-29T22:54:51.281Z,1.03
2024-02-29T22:57:18.601Z,1.13
2024-02-29T22:59:45.915Z,0.80
2024-02-29T23:02:13.428Z,1.00
2024-02-29T23:04:42.141Z,0.80
2024-02-29T23:07:09.546Z,0.93
2024-02-29T23:09:36.897Z,1.00
2024-02-29T23:12:04.526Z,1.00
2024-02-29T23:14:31.985Z,0.93
2024-02-29T23:16:59.360Z,0.83
2024-02-29T23:19:26.738Z,0.90
2024-02-29T23:21:55.452Z,0.83
2024-02-29T23:24:22.814Z,1.10
2024-02-29T23:26:50.125Z,0.97
2024-02-29T23:29:17.517Z,1.20
2024-02-29T23:31:44.830Z,1.17
2024-02-29T23:34:12.164Z,1.30
2024-02-29T23:36:39.523Z,1.57
2024-02-29T23:39:08.207Z,1.27
2024-02-29T23:41:35.543Z,1.20
2024-02-29T23:44:02.892Z,1.30
2024-02-29T23:46:30.321Z,1.20
2024-02-29T23:48:57.676Z,1.63
2024-02-29T23:51:25.017Z,1.50
2024-02-29T23:53:52.345Z,1.10
2024-02-29T23:56:21.034Z,1.60
2024-02-29T23:58:48.381Z,1.33
